Time;durP1;ratioP1;P1;durP2;ratioP2;P2;SDS_P1;SDS_P2;PMS_P1;PMS_P2;Temp;Humidity;BMP_temperature;BMP_pressure;BME280_temperature;BME280_humidity;BME280_pressure;Samples;Min_cycle;Max_cycle;Signal;HPM_P1;HPM_P2
2022/03/11 00:01:50;;;;;;;14.15;7.88;;;10.70;41.10;;;;;;5042286;28;20112;-72
2022/03/11 00:04:16;;;;;;;13.63;7.97;;;10.70;40.50;;;;;;5043105;28;20450;-72
2022/03/11 00:06:41;;;;;;;14.18;8.60;;;10.60;40.60;;;;;;5043478;28;20481;-72
2022/03/11 00:09:07;;;;;;;15.07;7.88;;;10.60;40.60;;;;;;5046541;28;20112;-72
2022/03/11 00:11:33;;;;;;;13.25;8.30;;;10.60;40.70;;;;;;5052704;28;20469;-72
2022/03/11 00:14:01;;;;;;;16.75;9.48;;;10.60;40.70;;;;;;5044435;28;20025;-71
2022/03/11 00:16:27;;;;;;;14.73;8.98;;;10.60;40.90;;;;;;5035511;28;20116;-72
2022/03/11 00:18:52;;;;;;;14.82;9.40;;;10.50;40.90;;;;;;5024313;28;20032;-72
2022/03/11 00:21:18;;;;;;;16.10;8.93;;;10.50;41.00;;;;;;5048034;28;20017;-72
2022/03/11 00:23:45;;;;;;;15.32;8.40;;;10.50;41.10;;;;;;5042540;28;20029;-71
2022/03/11 00:26:11;;;;;;;16.13;9.38;;;10.40;41.20;;;;;;5040800;28;20086;-72
2022/03/11 00:28:37;;;;;;;16.33;9.60;;;10.40;41.30;;;;;;5044814;28;20450;-72
2022/03/11 00:31:05;;;;;;;16.60;9.52;;;10.40;41.40;;;;;;5035855;28;20129;-72
2022/03/11 00:33:31;;;;;;;16.38;9.10;;;10.40;41.60;;;;;;5037021;28;20032;-72
2022/03/11 00:35:57;;;;;;;13.98;8.35;;;10.30;41.60;;;;;;5051670;28;20100;-72
2022/03/11 00:38:23;;;;;;;17.35;9.57;;;10.30;41.70;;;;;;5034206;28;20026;-72
2022/03/11 00:40:51;;;;;;;15.43;8.65;;;10.20;41.80;;;;;;5035866;28;20033;-72
2022/03/11 00:43:17;;;;;;;15.20;8.45;;;10.20;41.90;;;;;;5041241;28;20074;-72
2022/03/11 00:45:43;;;;;;;14.13;9.10;;;10.20;41.90;;;;;;5053479;28;20029;-72
2022/03/11 00:48:09;;;;;;;14.30;8.57;;;10.20;42.10;;;;;;5035510;28;20022;-72
2022/03/11 00:50:35;;;;;;;16.70;9.75;;;10.20;42.10;;;;;;5035421;28;20112;-72
2022/03/11 00:53:02;;;;;;;18.30;10.43;;;10.10;42.20;;;;;;5038517;28;20158;-72
2022/03/11 00:55:28;;;;;;;16.67;9.95;;;10.10;42.30;;;;;;5054742;28;20488;-71
2022/03/11 00:57:54;;;;;;;16.50;10.07;;;10.10;42.50;;;;;;5037766;28;20025;-72
2022/03/11 01:00:20;;;;;;;16.20;9.65;;;10.10;42.60;;;;;;5028550;28;20362;-72
2022/03/11 01:02:45;;;;;;;17.05;9.82;;;10.00;42.60;;;;;;5054052;28;20116;-72
2022/03/11 01:05:11;;;;;;;16.40;9.52;;;10.00;42.80;;;;;;5036703;28;20453;-72
2022/03/11 01:07:37;;;;;;;18.08;11.38;;;9.90;42.90;;;;;;5051063;28;20089;-72
2022/03/11 01:10:05;;;;;;;14.68;8.70;;;9.90;43.00;;;;;;5036966;28;20037;-72
2022/03/11 01:12:30;;;;;;;16.70;9.65;;;9.90;43.10;;;;;;5035180;28;20044;-72
2022/03/11 01:14:56;;;;;;;15.55;10.27;;;9.90;43.20;;;;;;5042056;28;20029;-72
2022/03/11 01:17:22;;;;;;;17.88;9.90;;;9.90;43.20;;;;;;5040860;28;20450;-72
2022/03/11 01:19:47;;;;;;;16.50;9.95;;;9.90;43.30;;;;;;5030910;28;20044;-72
2022/03/11 01:22:13;;;;;;;16.20;9.88;;;9.80;43.40;;;;;;5055160;28;20032;-72
2022/03/11 01:24:38;;;;;;;18.00;9.45;;;9.80;43.40;;;;;;5046006;28;20063;-72
2022/03/11 01:27:05;;;;;;;17.15;10.35;;;9.80;43.50;;;;;;5042538;28;20087;-72
2022/03/11 01:29:31;;;;;;;16.60;9.88;;;9.70;43.60;;;;;;5040878;28;20040;-72
2022/03/11 01:31:57;;;;;;;14.25;9.45;;;9.70;43.60;;;;;;5034811;28;20038;-72
2022/03/11 01:34:23;;;;;;;16.83;9.68;;;9.70;43.80;;;;;;5037105;28;20021;-72
2022/03/11 01:36:48;;;;;;;17.00;10.38;;;9.60;43.80;;;;;;5028221;28;20501;-71
2022/03/11 01:39:14;;;;;;;15.73;9.63;;;9.60;43.90;;;;;;5040447;28;20025;-72
2022/03/11 01:41:39;;;;;;;15.98;9.45;;;9.60;44.00;;;;;;5053052;28;20131;-71
2022/03/11 01:44:07;;;;;;;17.15;9.90;;;9.60;44.10;;;;;;5045572;28;20025;-72
2022/03/11 01:46:33;;;;;;;14.55;9.23;;;9.60;44.20;;;;;;5044310;28;20032;-72
2022/03/11 01:49:01;;;;;;;18.15;10.20;;;9.60;44.30;;;;;;5037173;28;20033;-72
2022/03/11 01:51:28;;;;;;;16.15;9.68;;;9.50;44.40;;;;;;5052701;28;20029;-72
2022/03/11 01:53:54;;;;;;;16.42;10.57;;;9.50;44.40;;;;;;5045360;28;20036;-72
2022/03/11 01:56:22;;;;;;;16.95;10.40;;;9.50;44.50;;;;;;5043311;28;20030;-71
2022/03/11 01:58:49;;;;;;;15.98;10.02;;;9.50;44.60;;;;;;5038913;28;20079;-72
2022/03/11 02:01:16;;;;;;;17.17;9.48;;;9.50;44.70;;;;;;5034401;28;20034;-72
2022/03/11 02:03:41;;;;;;;16.55;10.52;;;9.40;44.70;;;;;;5034545;28;20037;-72
2022/03/11 02:06:08;;;;;;;16.85;9.40;;;9.40;44.70;;;;;;5036259;28;20056;-72
2022/03/11 02:08:35;;;;;;;17.02;10.13;;;9.50;44.80;;;;;;5054763;28;20032;-72
2022/03/11 02:11:02;;;;;;;16.23;9.55;;;9.40;44.80;;;;;;5037043;28;20093;-72
2022/03/11 02:13:28;;;;;;;17.17;10.30;;;9.40;44.90;;;;;;5041525;28;20041;-71
2022/03/11 02:15:53;;;;;;;17.02;9.50;;;9.40;45.00;;;;;;5035468;28;20033;-71
2022/03/11 02:18:19;;;;;;;19.02;10.15;;;9.40;45.00;;;;;;5053258;28;20044;-71
2022/03/11 02:20:48;;;;;;;17.08;10.18;;;9.30;45.00;;;;;;5040390;28;20033;-72
2022/03/11 02:23:15;;;;;;;17.10;8.88;;;9.30;45.20;;;;;;5034727;28;20454;-72
2022/03/11 02:25:41;;;;;;;16.42;8.43;;;9.30;45.20;;;;;;5033430;28;20466;-72
2022/03/11 02:28:07;;;;;;;16.65;9.70;;;9.30;45.20;;;;;;5036051;28;20029;-72
2022/03/11 02:30:32;;;;;;;14.25;9.25;;;9.30;45.30;;;;;;5046681;28;20045;-72
2022/03/11 02:32:58;;;;;;;18.00;10.52;;;9.30;45.40;;;;;;5034526;28;20025;-72
2022/03/11 02:35:24;;;;;;;15.13;9.90;;;9.30;45.40;;;;;;5038290;28;20025;-72
2022/03/11 02:37:49;;;;;;;15.98;9.80;;;9.20;45.40;;;;;;5035379;28;20060;-72
2022/03/11 02:40:15;;;;;;;15.15;10.10;;;9.30;45.40;;;;;;5040478;28;20019;-72
2022/03/11 02:42:41;;;;;;;15.40;9.50;;;9.20;45.40;;;;;;5052226;28;20032;-71
2022/03/11 02:45:07;;;;;;;15.98;10.05;;;9.20;45.50;;;;;;5038951;28;20036;-71
2022/03/11 02:47:33;;;;;;;14.77;8.73;;;9.20;45.60;;;;;;5037712;28;20037;-71
2022/03/11 02:49:59;;;;;;;17.48;9.77;;;9.10;45.60;;;;;;5038096;28;20040;-71
2022/03/11 02:52:26;;;;;;;15.15;9.73;;;9.10;45.70;;;;;;5034488;28;20036;-71
2022/03/11 02:54:52;;;;;;;15.25;9.23;;;9.10;45.70;;;;;;5049834;28;20025;-71
2022/03/11 02:57:18;;;;;;;18.65;9.70;;;9.10;45.80;;;;;;5046317;28;20383;-72
2022/03/11 02:59:46;;;;;;;15.65;9.45;;;9.00;45.80;;;;;;5017503;28;20135;-72
2022/03/11 03:02:12;;;;;;;15.32;8.65;;;9.00;45.80;;;;;;5040692;28;20083;-71
2022/03/11 03:04:38;;;;;;;16.30;9.98;;;9.00;45.80;;;;;;5036120;28;20401;-72
2022/03/11 03:07:04;;;;;;;15.27;9.07;;;9.00;45.90;;;;;;5046931;28;20056;-72
2022/03/11 03:09:30;;;;;;;14.68;8.73;;;9.00;46.00;;;;;;5036623;28;20038;-72
2022/03/11 03:11:55;;;;;;;17.35;9.52;;;8.90;46.00;;;;;;5054935;28;20036;-72
2022/03/11 03:14:21;;;;;;;16.00;9.27;;;8.90;46.00;;;;;;5056662;28;20028;-72
2022/03/11 03:16:46;;;;;;;16.15;9.13;;;8.90;46.10;;;;;;5045882;28;20033;-72
2022/03/11 03:19:13;;;;;;;17.90;9.32;;;8.90;46.10;;;;;;5057327;28;20032;-72
2022/03/11 03:21:39;;;;;;;15.23;8.73;;;8.90;46.10;;;;;;5025213;28;20104;-72
2022/03/11 03:24:08;;;;;;;15.65;10.32;;;8.90;46.10;;;;;;5037270;28;20036;-72
2022/03/11 03:26:33;;;;;;;16.02;8.90;;;8.90;46.20;;;;;;5046443;28;20032;-72
2022/03/11 03:28:59;;;;;;;14.80;9.18;;;8.90;46.20;;;;;;5055815;28;20029;-72
2022/03/11 03:31:25;;;;;;;15.50;9.23;;;8.90;46.20;;;;;;5044822;28;20474;-72
2022/03/11 03:33:51;;;;;;;13.50;8.18;;;8.90;46.30;;;;;;5040794;28;20033;-72
2022/03/11 03:36:16;;;;;;;15.27;9.43;;;8.90;46.30;;;;;;5045794;28;20029;-71
2022/03/11 03:38:42;;;;;;;16.23;9.80;;;8.80;46.30;;;;;;5056939;28;20035;-71
2022/03/11 03:41:08;;;;;;;13.70;8.30;;;8.90;46.40;;;;;;5046319;28;20028;-71
2022/03/11 03:43:33;;;;;;;15.18;9.13;;;8.80;46.40;;;;;;5052725;28;20025;-71
2022/03/11 03:45:59;;;;;;;13.88;9.25;;;8.70;46.50;;;;;;5042752;28;20116;-71
2022/03/11 03:48:25;;;;;;;13.48;8.40;;;8.70;46.70;;;;;;5037400;28;20029;-71
2022/03/11 03:50:51;;;;;;;14.18;8.77;;;8.70;46.70;;;;;;5041197;28;20036;-71
2022/03/11 03:53:17;;;;;;;15.15;9.05;;;8.60;46.70;;;;;;5054500;28;20047;-71
2022/03/11 03:55:42;;;;;;;14.60;9.20;;;8.60;46.80;;;;;;5051039;28;20073;-71
2022/03/11 03:58:08;;;;;;;15.50;8.98;;;8.60;46.90;;;;;;5043046;28;20030;-71
2022/03/11 04:00:34;;;;;;;14.82;8.63;;;8.60;46.90;;;;;;5038875;28;20035;-71
2022/03/11 04:02:59;;;;;;;14.88;9.10;;;8.60;46.90;;;;;;5047654;28;20350;-71
2022/03/11 04:05:25;;;;;;;14.07;9.20;;;8.60;46.90;;;;;;5040400;28;20033;-71
2022/03/11 04:07:52;;;;;;;13.80;8.45;;;8.60;47.00;;;;;;5044929;28;20021;-71
2022/03/11 04:10:18;;;;;;;16.52;10.02;;;8.60;47.00;;;;;;5019406;28;20469;-71
2022/03/11 04:12:44;;;;;;;15.00;9.18;;;8.60;47.10;;;;;;5035029;28;20485;-71
2022/03/11 04:15:10;;;;;;;16.00;9.65;;;8.60;47.20;;;;;;5036995;28;20188;-71
2022/03/11 04:17:36;;;;;;;16.20;9.60;;;8.50;47.20;;;;;;5038498;28;20387;-71
2022/03/11 04:20:02;;;;;;;14.35;9.65;;;8.50;47.30;;;;;;5038534;28;20037;-71
2022/03/11 04:22:28;;;;;;;15.65;9.68;;;8.50;47.30;;;;;;5042931;28;20430;-71
2022/03/11 04:24:53;;;;;;;16.63;10.07;;;8.50;47.40;;;;;;5029011;28;20036;-71
2022/03/11 04:27:19;;;;;;;16.23;9.57;;;8.40;47.50;;;;;;5048685;28;20354;-71
2022/03/11 04:29:45;;;;;;;17.50;9.95;;;8.40;47.50;;;;;;5055447;28;20103;-71
2022/03/11 04:32:10;;;;;;;15.52;9.52;;;8.40;47.50;;;;;;5049061;28;20036;-71
2022/03/11 04:34:42;;;;;;;14.68;9.23;;;8.40;47.50;;;;;;5030178;28;20032;-71
2022/03/11 04:37:08;;;;;;;15.02;9.48;;;8.40;47.60;;;;;;5035022;28;20446;-71
2022/03/11 04:39:33;;;;;;;16.25;9.38;;;8.40;47.60;;;;;;5033743;28;20044;-71
2022/03/11 04:41:59;;;;;;;16.15;9.48;;;8.40;47.70;;;;;;5034044;28;20017;-71
2022/03/11 04:44:25;;;;;;;17.00;10.07;;;8.30;47.70;;;;;;5032876;28;20409;-71
2022/03/11 04:46:50;;;;;;;14.38;8.50;;;8.30;47.80;;;;;;5036966;28;20032;-71
2022/03/11 04:49:17;;;;;;;15.55;9.10;;;8.30;47.90;;;;;;5036314;28;20087;-71
2022/03/11 04:51:42;;;;;;;15.77;9.90;;;8.30;47.90;;;;;;5041436;28;20118;-71
2022/03/11 04:54:08;;;;;;;16.83;9.93;;;8.30;47.90;;;;;;5042020;28;20133;-71
2022/03/11 04:56:34;;;;;;;14.95;9.68;;;8.30;47.90;;;;;;5035338;28;20032;-71
2022/03/11 04:59:00;;;;;;;15.60;9.10;;;8.30;47.90;;;;;;5037909;28;20041;-71
2022/03/11 05:01:28;;;;;;;16.20;9.75;;;8.30;48.00;;;;;;5033508;28;20109;-71
2022/03/11 05:03:53;;;;;;;14.52;8.80;;;8.20;48.00;;;;;;5035567;28;20098;-72
2022/03/11 05:06:19;;;;;;;15.73;9.82;;;8.30;48.10;;;;;;5037274;28;20029;-71
2022/03/11 05:08:44;;;;;;;15.95;9.60;;;8.20;48.10;;;;;;5020906;28;20025;-71
2022/03/11 05:11:10;;;;;;;16.25;9.70;;;8.30;48.20;;;;;;5040008;28;20064;-71
2022/03/11 05:13:36;;;;;;;14.68;8.48;;;8.20;48.10;;;;;;5035124;28;20044;-71
2022/03/11 05:16:02;;;;;;;14.20;8.40;;;8.20;48.20;;;;;;5029023;28;20035;-71
2022/03/11 05:18:28;;;;;;;13.07;8.18;;;8.20;48.20;;;;;;5035900;28;20021;-71
2022/03/11 05:20:54;;;;;;;14.32;8.70;;;8.20;48.30;;;;;;5037805;28;20462;-71
2022/03/11 05:23:19;;;;;;;15.65;9.55;;;8.20;48.30;;;;;;5032413;28;20030;-71
2022/03/11 05:25:45;;;;;;;15.77;9.07;;;8.20;48.30;;;;;;5032304;28;20026;-71
2022/03/11 05:28:11;;;;;;;15.30;8.63;;;8.20;48.30;;;;;;5034100;28;20108;-71
2022/03/11 05:30:37;;;;;;;15.50;9.73;;;8.20;48.30;;;;;;5050014;28;20041;-71
2022/03/11 05:33:03;;;;;;;14.93;8.85;;;8.20;48.30;;;;;;5034865;28;20029;-72
2022/03/11 05:35:30;;;;;;;16.63;8.50;;;8.20;48.30;;;;;;5039299;28;20029;-72
2022/03/11 05:37:55;;;;;;;14.18;8.80;;;8.20;48.30;;;;;;5044483;28;20037;-72
2022/03/11 05:40:21;;;;;;;14.68;9.15;;;8.20;48.30;;;;;;5053403;28;20021;-72
2022/03/11 05:42:47;;;;;;;18.08;8.90;;;8.20;48.40;;;;;;5051954;28;20025;-72
2022/03/11 05:45:13;;;;;;;16.52;8.98;;;8.10;48.30;;;;;;5034864;28;20465;-71
2022/03/11 05:47:39;;;;;;;16.35;9.50;;;8.10;48.40;;;;;;5045263;28;20045;-71
2022/03/11 05:50:05;;;;;;;16.45;8.88;;;8.10;48.50;;;;;;5040881;28;20026;-72
2022/03/11 05:52:35;;;;;;;16.98;9.85;;;8.00;48.50;;;;;;5036635;28;20037;-71
2022/03/11 05:55:01;;;;;;;15.50;8.77;;;8.00;48.60;;;;;;5053138;28;20025;-71
2022/03/11 05:57:26;;;;;;;13.85;8.50;;;8.10;48.70;;;;;;5050096;28;20039;-71
2022/03/11 05:59:52;;;;;;;14.02;8.40;;;8.00;48.60;;;;;;5036988;28;20048;-69
2022/03/11 06:02:18;;;;;;;15.20;8.65;;;8.00;48.60;;;;;;5042168;28;20347;-70
2022/03/11 06:04:44;;;;;;;17.15;9.70;;;8.00;48.60;;;;;;5043262;28;20359;-70
2022/03/11 06:07:09;;;;;;;17.00;9.15;;;8.00;48.70;;;;;;5034379;28;20036;-70
2022/03/11 06:09:35;;;;;;;15.35;9.00;;;8.00;48.70;;;;;;5042514;28;20087;-70
2022/03/11 06:12:02;;;;;;;14.93;7.90;;;8.00;48.70;;;;;;5036334;28;20029;-70
2022/03/11 06:14:29;;;;;;;15.38;9.07;;;8.00;48.70;;;;;;5036540;28;20075;-70
2022/03/11 06:16:54;;;;;;;15.90;9.35;;;8.00;48.70;;;;;;5050174;28;20421;-70
2022/03/11 06:19:20;;;;;;;15.27;8.35;;;8.00;48.70;;;;;;5046347;28;20075;-70
2022/03/11 06:21:45;;;;;;;17.05;9.13;;;8.10;48.70;;;;;;5051470;28;20208;-70
2022/03/11 06:24:11;;;;;;;15.88;9.38;;;8.00;48.70;;;;;;5049354;28;20032;-70
2022/03/11 06:26:37;;;;;;;15.77;8.85;;;8.00;48.70;;;;;;5033538;28;20056;-70
2022/03/11 06:29:03;;;;;;;18.15;9.98;;;8.00;48.70;;;;;;5039135;28;20032;-70
2022/03/11 06:31:28;;;;;;;17.52;9.43;;;8.00;48.80;;;;;;5050245;28;20450;-71
2022/03/11 06:33:54;;;;;;;18.20;9.52;;;8.00;48.70;;;;;;5034866;28;20037;-71
2022/03/11 06:36:20;;;;;;;15.32;9.07;;;8.00;48.70;;;;;;5051781;28;20052;-70
2022/03/11 06:38:45;;;;;;;14.68;9.25;;;8.10;48.70;;;;;;5052026;28;20367;-70
2022/03/11 06:41:12;;;;;;;15.85;9.68;;;8.10;48.70;;;;;;5037046;28;20044;-69
2022/03/11 06:43:38;;;;;;;17.85;10.45;;;8.10;48.60;;;;;;5039560;28;20033;-68
2022/03/11 06:46:03;;;;;;;17.20;8.68;;;8.10;48.60;;;;;;5042079;28;20052;-68
2022/03/11 06:48:29;;;;;;;15.35;9.18;;;8.20;48.70;;;;;;5042208;28;20100;-69
2022/03/11 06:50:55;;;;;;;17.10;9.85;;;8.30;48.70;;;;;;5039610;28;20032;-71
2022/03/11 06:53:25;;;;;;;16.95;9.63;;;8.30;48.60;;;;;;5040596;28;20033;-70
2022/03/11 06:55:52;;;;;;;17.75;9.00;;;8.30;48.50;;;;;;5038689;28;20048;-71
2022/03/11 06:58:18;;;;;;;15.75;9.50;;;8.30;48.50;;;;;;5045422;28;20022;-73
2022/03/11 07:00:44;;;;;;;15.95;9.35;;;8.30;49.10;;;;;;5015980;28;20102;-71
2022/03/11 07:03:09;;;;;;;16.38;8.93;;;8.30;48.50;;;;;;5032447;28;20021;-72
2022/03/11 07:05:35;;;;;;;12.93;7.50;;;8.30;48.40;;;;;;5037891;28;20022;-70
2022/03/11 07:08:00;;;;;;;14.73;8.80;;;8.50;48.30;;;;;;5040563;28;20033;-69
2022/03/11 07:10:26;;;;;;;15.52;8.93;;;8.60;48.00;;;;;;5050947;28;20120;-68
2022/03/11 07:12:52;;;;;;;18.55;9.45;;;8.70;47.80;;;;;;5040331;28;20100;-68
2022/03/11 07:15:17;;;;;;;14.95;9.10;;;8.80;47.70;;;;;;5036966;28;20033;-69
2022/03/11 07:17:43;;;;;;;15.48;9.10;;;9.00;47.60;;;;;;5050000;28;20032;-68
2022/03/11 07:20:09;;;;;;;17.48;9.55;;;9.10;47.40;;;;;;5049129;28;20056;-69
2022/03/11 07:22:35;;;;;;;14.93;8.00;;;9.20;47.20;;;;;;5050878;28;20029;-69
2022/03/11 07:25:01;;;;;;;15.73;7.95;;;9.30;47.00;;;;;;5052737;28;20043;-70
2022/03/11 07:27:27;;;;;;;14.80;8.90;;;9.30;46.80;;;;;;5035209;28;20037;-69
2022/03/11 07:29:54;;;;;;;14.90;8.48;;;9.50;46.70;;;;;;5037063;28;20364;-69
2022/03/11 07:32:20;;;;;;;14.73;8.07;;;9.60;46.50;;;;;;5036318;28;20049;-69
2022/03/11 07:34:45;;;;;;;15.55;8.50;;;9.70;46.30;;;;;;5052525;28;20033;-69
2022/03/11 07:37:12;;;;;;;18.95;9.25;;;9.80;46.10;;;;;;5035844;28;20029;-68
2022/03/11 07:39:39;;;;;;;14.93;8.93;;;9.80;45.90;;;;;;5037014;28;20045;-68
2022/03/11 07:42:07;;;;;;;13.82;8.32;;;9.90;45.80;;;;;;5035726;28;20056;-68
2022/03/11 07:44:33;;;;;;;13.63;7.53;;;10.00;45.70;;;;;;5035247;28;20064;-68
2022/03/11 07:47:00;;;;;;;12.30;7.95;;;10.10;45.60;;;;;;5051971;28;20072;-70
2022/03/11 07:49:27;;;;;;;13.05;7.72;;;10.20;45.40;;;;;;5031054;28;20025;-70
2022/03/11 07:51:53;;;;;;;14.77;8.20;;;10.30;45.20;;;;;;5044117;28;20061;-69
2022/03/11 07:54:21;;;;;;;14.65;8.80;;;10.50;45.10;;;;;;5046103;28;20082;-68
2022/03/11 07:56:47;;;;;;;15.68;8.00;;;10.60;44.90;;;;;;5047486;28;20030;-69
2022/03/11 07:59:12;;;;;;;15.27;8.23;;;10.80;44.80;;;;;;5047378;28;20040;-68
2022/03/11 08:01:38;;;;;;;15.48;8.80;;;11.00;44.60;;;;;;5045865;28;20087;-68
2022/03/11 08:04:05;;;;;;;16.65;9.45;;;11.10;44.30;;;;;;5035920;28;20040;-69
2022/03/11 08:06:31;;;;;;;15.93;9.13;;;11.30;44.10;;;;;;5019867;28;20029;-69
2022/03/11 08:08:57;;;;;;;14.23;8.38;;;11.40;43.90;;;;;;5044914;28;20036;-69
2022/03/11 08:11:23;;;;;;;13.95;8.13;;;11.60;43.60;;;;;;5053388;28;20026;-69
2022/03/11 08:13:48;;;;;;;15.50;9.00;;;11.80;43.40;;;;;;5052153;28;20025;-69
2022/03/11 08:16:15;;;;;;;13.80;8.77;;;12.00;43.20;;;;;;5055108;28;20041;-69
2022/03/11 08:18:42;;;;;;;16.83;8.35;;;12.20;42.90;;;;;;5039814;28;20045;-69
2022/03/11 08:21:16;;;;;;;16.55;9.95;;;12.40;42.60;;;;;;5036096;28;20029;-69
2022/03/11 08:23:43;;;;;;;17.23;8.70;;;12.50;42.20;;;;;;5050684;28;20120;-69
2022/03/11 08:26:10;;;;;;;14.93;9.13;;;12.70;42.60;;;;;;5041461;28;20025;-70
2022/03/11 08:28:37;;;;;;;22.70;9.52;;;12.90;41.80;;;;;;5034711;28;20044;-70
2022/03/11 08:31:03;;;;;;;15.57;9.68;;;13.10;41.50;;;;;;5040815;28;20370;-70
2022/03/11 08:33:30;;;;;;;18.98;9.73;;;13.20;41.20;;;;;;5047543;28;20028;-71
2022/03/11 08:35:57;;;;;;;15.88;9.63;;;13.30;40.90;;;;;;5046348;28;20470;-70
2022/03/11 08:38:22;;;;;;;17.77;9.98;;;13.40;40.70;;;;;;5054541;28;20028;-70
2022/03/11 08:40:48;;;;;;;19.00;10.30;;;13.50;40.40;;;;;;5052405;28;20123;-71
2022/03/11 08:43:14;;;;;;;16.73;8.85;;;13.70;40.30;;;;;;5045606;28;20105;-70
2022/03/11 08:45:40;;;;;;;15.63;9.18;;;13.70;40.10;;;;;;5036212;28;20030;-70
2022/03/11 08:48:06;;;;;;;18.65;9.45;;;13.90;40.00;;;;;;5044769;28;20029;-70
2022/03/11 08:50:33;;;;;;;16.25;9.65;;;14.00;39.70;;;;;;5025688;28;20021;-71
2022/03/11 08:52:58;;;;;;;16.38;9.38;;;14.10;39.50;;;;;;5044186;28;20035;-69
2022/03/11 08:55:24;;;;;;;16.58;9.60;;;14.20;39.40;;;;;;5053221;28;20033;-70
2022/03/11 08:57:51;;;;;;;21.00;11.05;;;14.30;39.20;;;;;;5049011;28;20064;-71
2022/03/11 09:00:19;;;;;;;18.88;10.90;;;14.40;39.00;;;;;;5042190;28;20037;-70
2022/03/11 09:02:45;;;;;;;15.75;8.65;;;14.50;38.60;;;;;;5038083;28;20021;-72
2022/03/11 09:05:13;;;;;;;15.10;9.38;;;14.50;38.50;;;;;;5054581;28;20106;-72
2022/03/11 09:07:39;;;;;;;17.08;9.07;;;14.60;38.40;;;;;;5050290;28;20087;-73
2022/03/11 09:10:07;;;;;;;15.55;9.55;;;14.80;38.40;;;;;;5036231;28;20029;-71
2022/03/11 09:12:32;;;;;;;17.55;9.10;;;14.90;38.10;;;;;;5043399;28;20032;-72
2022/03/11 09:14:58;;;;;;;15.45;9.30;;;15.00;38.00;;;;;;5038521;28;20100;-72
2022/03/11 09:17:24;;;;;;;14.88;9.45;;;15.10;37.90;;;;;;5034192;28;20394;-72
2022/03/11 09:19:50;;;;;;;15.80;9.60;;;15.00;37.80;;;;;;5052189;28;20067;-71
2022/03/11 09:22:17;;;;;;;18.02;9.35;;;15.10;37.80;;;;;;5053202;28;20033;-72
2022/03/11 09:24:46;;;;;;;15.90;9.27;;;15.10;37.70;;;;;;5034738;28;20380;-72
2022/03/11 09:27:12;;;;;;;16.95;9.98;;;15.20;37.70;;;;;;5035408;28;20346;-72
2022/03/11 09:29:41;;;;;;;17.02;9.90;;;15.40;37.50;;;;;;5036095;28;20054;-72
2022/03/11 09:32:07;;;;;;;16.52;10.18;;;15.50;37.40;;;;;;5042050;28;20025;-72
2022/03/11 09:34:40;;;;;;;18.27;10.85;;;15.50;37.50;;;;;;5045089;28;20025;-73
2022/03/11 09:37:06;;;;;;;17.92;10.50;;;15.50;37.10;;;;;;5044876;28;20037;-73
2022/03/11 09:39:32;;;;;;;16.80;10.02;;;15.40;37.20;;;;;;5016321;28;20082;-73
2022/03/11 09:42:02;;;;;;;16.83;9.55;;;15.50;37.20;;;;;;5042197;28;20500;-73
2022/03/11 09:44:27;;;;;;;15.50;9.27;;;15.60;37.10;;;;;;5042737;28;20087;-73
2022/03/11 09:46:54;;;;;;;17.35;10.82;;;15.60;36.90;;;;;;5047421;28;20053;-73
2022/03/11 09:49:20;;;;;;;16.83;10.27;;;15.60;36.90;;;;;;5040225;28;20438;-73
2022/03/11 09:51:47;;;;;;;15.48;10.68;;;15.60;36.80;;;;;;5042705;28;20041;-73
2022/03/11 09:54:13;;;;;;;18.00;10.07;;;15.60;36.80;;;;;;5049909;28;20053;-72
2022/03/11 09:56:41;;;;;;;18.73;10.38;;;15.60;36.80;;;;;;5044302;28;20099;-71
2022/03/11 09:59:11;;;;;;;17.58;9.50;;;15.50;36.70;;;;;;5049293;28;20032;-69
2022/03/11 10:01:40;;;;;;;14.95;9.82;;;15.50;37.00;;;;;;5035758;28;20054;-72
2022/03/11 10:04:25;;;;;;;17.08;10.45;;;15.60;36.70;;;;;;5054302;28;20422;-71
2022/03/11 10:06:52;;;;;;;15.80;10.73;;;15.60;36.70;;;;;;5042352;28;20061;-72
2022/03/11 10:09:17;;;;;;;19.75;11.63;;;15.60;36.60;;;;;;5043232;28;20049;-71
2022/03/11 10:11:49;;;;;;;17.02;9.75;;;15.60;36.60;;;;;;5038712;28;20034;-71
2022/03/11 10:14:16;;;;;;;19.30;11.80;;;15.60;36.60;;;;;;5037994;28;20374;-71
2022/03/11 10:16:44;;;;;;;15.98;10.25;;;15.50;36.50;;;;;;5039512;28;20037;-71
2022/03/11 10:19:13;;;;;;;17.88;11.13;;;15.50;36.60;;;;;;5044801;28;20029;-70
2022/03/11 10:21:42;;;;;;;17.00;11.40;;;15.50;36.60;;;;;;5038826;28;20346;-72
2022/03/11 10:24:13;;;;;;;17.02;10.57;;;15.60;36.50;;;;;;5039586;28;20116;-71
2022/03/11 10:26:41;;;;;;;;;;;15.70;36.60;;;;;;5040919;28;20091;-72
2022/03/11 10:29:10;;;;;;;19.20;9.57;;;15.70;36.70;;;;;;5039813;28;19988;-71
2022/03/11 10:31:39;;;;;;;15.73;10.65;;;15.80;36.60;;;;;;5036882;28;20049;-71
2022/03/11 10:34:35;;;;;;;18.42;10.77;;;15.90;36.40;;;;;;5036303;28;20083;-72
2022/03/11 10:37:15;;;;;;;16.20;10.32;;;15.90;36.20;;;;;;5039467;28;20081;-72
2022/03/11 10:39:43;;;;;;;18.80;10.73;;;15.90;36.40;;;;;;5036379;28;20116;-73
2022/03/11 10:42:11;;;;;;;18.20;10.82;;;15.90;36.50;;;;;;5037856;28;20044;-72
2022/03/11 10:44:38;;;;;;;15.88;10.32;;;16.00;36.50;;;;;;5038456;28;20030;-72
2022/03/11 10:47:31;;;;;;;16.42;10.35;;;16.00;36.60;;;;;;5039886;28;20362;-71
2022/03/11 10:50:02;;;;;;;16.95;10.05;;;16.00;36.30;;;;;;5036025;28;20370;-72
2022/03/11 10:52:41;;;;;;;17.55;10.48;;;16.10;36.30;;;;;;5040656;28;20045;-71
2022/03/11 10:55:31;;;;;;;16.88;9.60;;;16.20;36.20;;;;;;5048284;28;20038;-72
2022/03/11 10:58:04;;;;;;;19.73;10.82;;;16.20;36.20;;;;;;5059771;28;20060;-71
2022/03/11 11:00:36;;;;;;;17.08;10.38;;;16.20;36.30;;;;;;5057021;28;20098;-71
2022/03/11 11:03:08;;;;;;;17.13;10.45;;;16.20;36.30;;;;;;5021526;28;20041;-72
2022/03/11 11:05:35;;;;;;;20.25;10.65;;;16.20;36.20;;;;;;5035446;28;20025;-72
2022/03/11 11:08:02;;;;;;;17.08;9.63;;;16.30;36.30;;;;;;5043494;28;20048;-72
2022/03/11 11:10:30;;;;;;;17.67;9.85;;;16.30;36.20;;;;;;5054870;28;20132;-72
2022/03/11 11:12:56;;;;;;;19.13;11.50;;;16.30;36.20;;;;;;5035130;28;20048;-72
2022/03/11 11:15:22;;;;;;;15.05;10.27;;;16.30;36.10;;;;;;5035057;28;20056;-72
2022/03/11 11:17:50;;;;;;;16.58;9.68;;;16.30;36.20;;;;;;5035048;28;20030;-72
2022/03/11 11:20:36;;;;;;;18.20;10.93;;;16.30;36.20;;;;;;5039175;28;20545;-71
2022/03/11 11:23:05;;;;;;;16.10;10.65;;;16.40;36.20;;;;;;5033525;28;20370;-71
2022/03/11 11:25:33;;;;;;;16.33;9.90;;;16.40;36.20;;;;;;5035526;28;20040;-71
2022/03/11 11:28:03;;;;;;;16.85;10.23;;;16.50;36.20;;;;;;5035937;28;20029;-71
2022/03/11 11:30:29;;;;;;;16.38;11.00;;;16.50;36.20;;;;;;5037360;28;20081;-72
2022/03/11 11:32:55;;;;;;;15.68;10.60;;;16.50;36.10;;;;;;5039190;28;20048;-71
2022/03/11 11:35:35;;;;;;;15.50;9.70;;;16.50;36.00;;;;;;5036999;28;20401;-72
2022/03/11 11:38:03;;;;;;;18.40;11.00;;;16.50;36.10;;;;;;5034142;28;20033;-72
2022/03/11 11:40:36;;;;;;;18.13;10.57;;;16.60;36.10;;;;;;5037803;28;20049;-71
2022/03/11 11:43:14;;;;;;;16.55;10.43;;;16.60;36.10;;;;;;5038944;28;20026;-71
2022/03/11 11:45:51;;;;;;;16.75;10.07;;;16.70;36.00;;;;;;5041519;28;20029;-70
2022/03/11 11:48:32;;;;;;;17.10;11.05;;;16.80;36.10;;;;;;5043853;28;20025;-71
2022/03/11 11:51:03;;;;;;;15.55;10.82;;;16.70;35.90;;;;;;5033963;28;20115;-72
2022/03/11 11:53:43;;;;;;;18.30;10.98;;;16.60;36.00;;;;;;5042738;28;20036;-70
2022/03/11 11:56:45;;;;;;;23.85;10.65;;;16.50;36.00;;;;;;5035938;28;20025;-71
2022/03/11 11:59:42;;;;;;;17.05;10.07;;;16.60;36.10;;;;;;5034836;28;20462;-71
2022/03/11 12:02:25;;;;;;;16.63;10.32;;;16.70;36.20;;;;;;5039158;28;20050;-71
2022/03/11 12:04:51;;;;;;;18.02;10.77;;;16.70;36.10;;;;;;5033854;28;20516;-71
2022/03/11 12:07:17;;;;;;;16.83;9.85;;;16.70;36.00;;;;;;5025050;28;20037;-71
2022/03/11 12:12:21;;;;;;;16.02;10.07;;;16.70;36.10;;;;;;5035925;28;20072;-71
2022/03/11 12:15:09;;;;;;;16.52;11.27;;;16.60;36.00;;;;;;5040398;28;20119;-71
2022/03/11 12:18:07;;;;;;;18.45;10.55;;;16.50;36.00;;;;;;5040796;28;20469;-71
2022/03/11 12:20:35;;;;;;;19.85;10.57;;;16.40;36.20;;;;;;5035999;28;20447;-71
2022/03/11 12:23:16;;;;;;;17.17;10.75;;;16.40;36.20;;;;;;5040794;28;20041;-72
2022/03/11 12:25:50;;;;;;;17.15;10.23;;;16.40;36.20;;;;;;5023397;28;20083;-71
2022/03/11 12:28:25;;;;;;;20.67;11.38;;;16.40;36.30;;;;;;5046629;28;20045;-71
2022/03/11 12:30:50;;;;;;;18.80;11.50;;;16.50;36.30;;;;;;5048073;28;20052;-71
2022/03/11 12:33:18;;;;;;;18.52;10.98;;;16.50;36.30;;;;;;5052713;28;20058;-71
2022/03/11 12:35:46;;;;;;;16.20;10.35;;;16.50;36.30;;;;;;5049715;28;20048;-71
2022/03/11 12:38:16;;;;;;;17.30;10.95;;;16.50;36.30;;;;;;5051077;28;20059;-71
2022/03/11 12:40:43;;;;;;;18.90;11.35;;;16.50;36.40;;;;;;5055471;28;20364;-71
2022/03/11 12:43:11;;;;;;;17.42;11.63;;;16.50;36.40;;;;;;5041382;28;20362;-71
2022/03/11 12:45:38;;;;;;;16.90;11.02;;;16.50;36.50;;;;;;5034693;28;20217;-72